createdAt,value
2023-05-05T00:00:25.857Z,51.52
2023-05-05T00:01:27.762Z,51.51
2023-05-05T00:02:29.729Z,51.51
2023-05-05T00:03:31.601Z,51.52
2023-05-05T00:04:33.488Z,51.49
2023-05-05T00:05:35.296Z,51.47
2023-05-05T00:06:37.078Z,51.50
2023-05-05T00:07:38.919Z,51.53
2023-05-05T00:08:41.821Z,51.51
2023-05-05T00:09:43.636Z,51.51
2023-05-05T00:10:45.427Z,51.53
2023-05-05T00:11:47.218Z,51.42
2023-05-05T00:12:49.075Z,51.40
2023-05-05T00:13:50.839Z,51.46
2023-05-05T00:14:52.640Z,51.50
2023-05-05T00:15:54.445Z,51.56
2023-05-05T00:16:56.508Z,51.62
2023-05-05T00:17:58.430Z,51.68
2023-05-05T00:19:00.299Z,51.78
2023-05-05T00:20:02.082Z,51.95
2023-05-05T00:21:03.875Z,52.02
2023-05-05T00:22:05.697Z,52.03
2023-05-05T00:23:07.534Z,52.07
2023-05-05T00:24:09.336Z,52.04
2023-05-05T00:25:11.138Z,52.00
2023-05-05T00:26:13.259Z,51.97
2023-05-05T00:27:15.040Z,51.87
2023-05-05T00:28:16.859Z,51.87
2023-05-05T00:29:18.636Z,51.93
2023-05-05T00:30:20.428Z,52.00
2023-05-05T00:31:22.290Z,52.14
2023-05-05T00:32:24.190Z,52.32
2023-05-05T00:33:26.063Z,52.41
2023-05-05T00:34:27.867Z,52.45
2023-05-05T00:35:29.671Z,52.52
2023-05-05T00:36:31.574Z,52.61
2023-05-05T00:37:33.371Z,52.65
2023-05-05T00:38:35.192Z,52.68
2023-05-05T00:39:37.003Z,52.71
2023-05-05T00:40:38.803Z,52.76
2023-05-05T00:41:40.589Z,52.80
2023-05-05T00:42:42.387Z,52.76
2023-05-05T00:43:44.203Z,52.74
2023-05-05T00:44:46.024Z,52.73
2023-05-05T00:45:48.114Z,52.73
2023-05-05T00:46:49.939Z,52.67
2023-05-05T00:47:51.782Z,52.69
2023-05-05T00:48:53.710Z,52.76
2023-05-05T00:49:55.610Z,52.83
2023-05-05T00:50:57.405Z,52.92
2023-05-05T00:51:59.205Z,53.01
2023-05-05T00:53:01.031Z,53.10
2023-05-05T00:54:02.807Z,53.17
2023-05-05T00:55:04.606Z,53.21
2023-05-05T00:56:06.517Z,53.23
2023-05-05T00:57:08.310Z,53.33
2023-05-05T00:58:10.151Z,53.34
2023-05-05T00:59:11.908Z,53.42
2023-05-05T01:00:13.823Z,53.49
2023-05-05T01:01:15.690Z,53.60
2023-05-05T01:02:17.533Z,53.56
2023-05-05T01:03:19.415Z,53.55
2023-05-05T01:04:21.316Z,53.56
2023-05-05T01:05:23.118Z,53.54
2023-05-05T01:06:24.921Z,53.57
2023-05-05T01:07:26.721Z,53.56
2023-05-05T01:08:28.562Z,53.61
2023-05-05T01:09:30.348Z,53.65
2023-05-05T01:10:33.294Z,53.62
2023-05-05T01:11:35.087Z,53.66
2023-05-05T01:12:36.903Z,53.65
2023-05-05T01:13:38.733Z,53.69
2023-05-05T01:14:40.536Z,53.67
2023-05-05T01:15:42.442Z,53.62
2023-05-05T01:16:44.368Z,53.63
2023-05-05T01:17:46.204Z,53.63
2023-05-05T01:18:48.089Z,53.64
2023-05-05T01:19:49.877Z,53.64
2023-05-05T01:20:51.676Z,53.64
2023-05-05T01:21:53.514Z,53.66
2023-05-05T01:22:55.307Z,53.62
2023-05-05T01:23:57.137Z,53.60
2023-05-05T01:24:58.831Z,53.56
2023-05-05T01:26:00.631Z,53.52
2023-05-05T01:27:02.447Z,53.48
2023-05-05T01:28:04.252Z,53.45
2023-05-05T01:29:06.349Z,53.49
2023-05-05T01:30:08.704Z,53.48
2023-05-05T01:31:10.701Z,53.51
2023-05-05T01:32:12.577Z,53.52
2023-05-05T01:33:14.389Z,53.54
2023-05-05T01:34:16.213Z,53.55
2023-05-05T01:35:18.015Z,53.58
2023-05-05T01:36:19.914Z,53.61
2023-05-05T01:37:21.706Z,53.58
2023-05-05T01:38:23.566Z,53.57
2023-05-05T01:39:25.391Z,53.57
2023-05-05T01:40:27.177Z,53.58
2023-05-05T01:41:29.002Z,53.60
2023-05-05T01:42:30.826Z,53.58
2023-05-05T01:43:32.598Z,53.58
2023-05-05T01:44:34.447Z,53.63
2023-05-05T01:45:36.184Z,53.64
2023-05-05T01:46:38.134Z,53.63
2023-05-05T01:47:39.941Z,53.60
2023-05-05T01:48:42.339Z,53.63
2023-05-05T01:49:44.261Z,53.63
2023-05-05T01:50:46.064Z,53.59
2023-05-05T01:51:47.913Z,53.57
2023-05-05T01:52:49.688Z,53.60
2023-05-05T01:53:51.487Z,53.56
2023-05-05T01:54:53.306Z,53.53
2023-05-05T01:55:55.122Z,53.51
2023-05-05T01:56:56.904Z,53.50
2023-05-05T01:57:58.737Z,53.49
2023-05-05T01:59:00.511Z,53.52
2023-05-05T02:00:02.402Z,53.54
2023-05-05T02:01:04.209Z,53.59
2023-05-05T02:02:06.109Z,53.66
2023-05-05T02:03:07.981Z,53.67
2023-05-05T02:04:10.099Z,53.67
2023-05-05T02:05:11.935Z,53.68
2023-05-05T02:06:13.739Z,53.67
2023-05-05T02:07:15.527Z,53.64
2023-05-05T02:08:17.316Z,53.67
2023-05-05T02:09:19.123Z,53.65
2023-05-05T02:10:20.978Z,53.63
2023-05-05T02:11:22.779Z,53.63
2023-05-05T02:12:24.564Z,53.52
2023-05-05T02:13:26.388Z,53.50
2023-05-05T02:14:28.159Z,53.46
2023-05-05T02:15:30.038Z,53.43
2023-05-05T02:16:31.881Z,53.43
2023-05-05T02:17:33.705Z,53.40
2023-05-05T02:18:35.466Z,53.41
2023-05-05T02:19:37.266Z,53.42
2023-05-05T02:20:39.250Z,53.39
2023-05-05T02:21:40.951Z,53.40
2023-05-05T02:22:45.362Z,53.39
2023-05-05T02:23:47.512Z,53.40
2023-05-05T02:24:49.318Z,53.43
2023-05-05T02:25:51.143Z,53.44
2023-05-05T02:26:52.929Z,53.44
2023-05-05T02:27:54.738Z,53.42
2023-05-05T02:28:56.514Z,53.40
2023-05-05T02:29:58.318Z,53.37
2023-05-05T02:31:00.216Z,53.37
2023-05-05T02:32:02.133Z,53.31
2023-05-05T02:33:03.974Z,53.33
2023-05-05T02:34:05.826Z,53.33
2023-05-05T02:35:07.629Z,53.42
2023-05-05T02:36:09.868Z,53.53
2023-05-05T02:37:11.711Z,53.58
2023-05-05T02:38:13.506Z,53.66
2023-05-05T02:39:15.323Z,53.65
2023-05-05T02:40:17.231Z,53.64
2023-05-05T02:41:19.037Z,53.62
2023-05-05T02:42:20.855Z,53.69
2023-05-05T02:43:22.705Z,53.79
2023-05-05T02:44:24.559Z,53.77
2023-05-05T02:45:26.351Z,53.79
2023-05-05T02:46:28.189Z,53.77
2023-05-05T02:47:30.094Z,53.74
2023-05-05T02:48:31.931Z,53.64
2023-05-05T02:49:33.737Z,53.58
2023-05-05T02:50:35.664Z,53.50
2023-05-05T02:51:37.441Z,53.44
2023-05-05T02:52:39.244Z,53.37
2023-05-05T02:53:41.036Z,53.30
2023-05-05T02:54:42.868Z,53.30
2023-05-05T02:55:44.918Z,53.29
2023-05-05T02:56:46.728Z,53.36
2023-05-05T02:57:48.527Z,53.42
2023-05-05T02:58:50.321Z,53.44
2023-05-05T02:59:52.106Z,53.50
2023-05-05T03:00:53.940Z,53.62
2023-05-05T03:01:55.800Z,53.63
2023-05-05T03:02:57.776Z,53.62
2023-05-05T03:03:59.739Z,53.60
2023-05-05T03:05:01.544Z,53.56
2023-05-05T03:06:03.603Z,53.59
2023-05-05T03:07:05.390Z,53.61
2023-05-05T03:08:07.191Z,53.66
2023-05-05T03:09:08.980Z,53.67
2023-05-05T03:10:11.310Z,53.74
2023-05-05T03:11:13.282Z,53.80
2023-05-05T03:12:15.196Z,53.78
2023-05-05T03:13:16.919Z,53.70
2023-05-05T03:14:18.700Z,53.65
2023-05-05T03:15:20.511Z,53.64
2023-05-05T03:16:22.361Z,53.63
2023-05-05T03:17:24.251Z,53.68
2023-05-05T03:18:26.022Z,53.71
2023-05-05T03:19:27.809Z,53.74
2023-05-05T03:20:29.607Z,53.84
2023-05-05T03:21:31.680Z,53.87
2023-05-05T03:22:33.487Z,53.91
2023-05-05T03:23:35.277Z,53.98
2023-05-05T03:24:37.093Z,54.06
2023-05-05T03:25:38.892Z,54.13
2023-05-05T03:26:40.801Z,54.11
2023-05-05T03:27:42.595Z,54.08
2023-05-05T03:28:44.443Z,54.05
2023-05-05T03:29:46.251Z,53.98
2023-05-05T03:30:48.037Z,54.19
2023-05-05T03:31:49.964Z,53.89
2023-05-05T03:32:51.871Z,53.82
2023-05-05T03:33:53.719Z,53.82
2023-05-05T03:34:55.515Z,53.84
2023-05-05T03:35:57.305Z,53.80
2023-05-05T03:36:59.218Z,53.79
2023-05-05T03:38:01.020Z,53.73
2023-05-05T03:39:02.814Z,53.68
2023-05-05T03:40:04.783Z,53.65
2023-05-05T03:41:06.728Z,53.73
2023-05-05T03:42:08.552Z,53.84
2023-05-05T03:43:10.379Z,53.79
2023-05-05T03:44:12.170Z,53.72
2023-05-05T03:45:13.868Z,53.69
2023-05-05T03:46:15.951Z,53.66
2023-05-05T03:47:17.856Z,53.69
2023-05-05T03:48:19.865Z,53.74
2023-05-05T03:49:21.669Z,53.86
2023-05-05T03:50:23.559Z,53.95
2023-05-05T03:51:25.388Z,53.99
2023-05-05T03:52:27.290Z,54.00
2023-05-05T03:53:29.103Z,53.97
2023-05-05T03:54:30.887Z,53.99
2023-05-05T03:55:32.721Z,53.89
2023-05-05T03:56:34.524Z,53.79
2023-05-05T03:57:36.404Z,53.73
2023-05-05T03:58:38.195Z,53.72
2023-05-05T03:59:40.025Z,53.75
2023-05-05T04:00:41.910Z,53.76
2023-05-05T04:01:43.714Z,53.76
2023-05-05T04:02:45.743Z,53.77
2023-05-05T04:03:47.637Z,53.75
2023-05-05T04:04:49.811Z,53.64
2023-05-05T04:05:51.602Z,53.50
2023-05-05T04:06:53.525Z,53.41
2023-05-05T04:07:55.409Z,53.33
2023-05-05T04:08:57.216Z,53.34
2023-05-05T04:09:59.016Z,53.33
2023-05-05T04:11:00.904Z,53.34
2023-05-05T04:12:02.717Z,53.25
2023-05-05T04:13:04.611Z,53.19
2023-05-05T04:14:06.565Z,53.18
2023-05-05T04:15:08.366Z,53.19
2023-05-05T04:16:10.586Z,53.22
2023-05-05T04:17:12.390Z,53.26
2023-05-05T04:18:14.271Z,53.22
2023-05-05T04:19:16.093Z,53.16
2023-05-05T04:20:17.993Z,53.12
2023-05-05T04:21:19.809Z,53.06
2023-05-05T04:22:21.626Z,52.91
2023-05-05T04:23:23.438Z,52.77
2023-05-05T04:24:25.241Z,52.61
2023-05-05T04:25:27.040Z,52.50
2023-05-05T04:26:28.827Z,52.26
2023-05-05T04:27:30.634Z,52.23
2023-05-05T04:28:32.570Z,52.31
2023-05-05T04:29:34.371Z,52.41
2023-05-05T04:30:36.270Z,52.27
2023-05-05T04:31:38.125Z,51.99
2023-05-05T04:32:39.996Z,51.90
2023-05-05T04:33:41.821Z,51.85
2023-05-05T04:34:43.599Z,51.78
2023-05-05T04:35:45.399Z,51.56
2023-05-05T04:36:47.225Z,51.41
2023-05-05T04:37:48.919Z,51.28
2023-05-05T04:38:50.851Z,51.28
2023-05-05T04:39:52.682Z,51.44
2023-05-05T04:40:54.596Z,51.55
2023-05-05T04:41:56.401Z,51.61
2023-05-05T04:42:58.225Z,51.59
2023-05-05T04:44:00.316Z,51.33
2023-05-05T04:45:02.127Z,51.05
2023-05-05T04:46:03.922Z,50.88
2023-05-05T04:47:05.716Z,50.83
2023-05-05T04:48:07.527Z,50.94
2023-05-05T04:49:09.417Z,50.97
2023-05-05T04:50:11.557Z,50.90
2023-05-05T04:51:13.306Z,50.82
2023-05-05T04:52:15.115Z,50.82
2023-05-05T04:53:16.923Z,50.61
2023-05-05T04:54:18.841Z,50.46
2023-05-05T04:55:20.534Z,50.46
2023-05-05T04:56:22.455Z,50.61
2023-05-05T04:57:24.266Z,50.77
2023-05-05T04:58:26.073Z,50.90
2023-05-05T04:59:27.956Z,50.93
2023-05-05T05:00:29.763Z,50.81
2023-05-05T05:01:31.668Z,50.62
2023-05-05T05:02:33.733Z,50.41
2023-05-05T05:03:35.745Z,50.37
2023-05-05T05:04:37.628Z,50.36
2023-05-05T05:05:39.305Z,50.43
2023-05-05T05:06:41.212Z,50.39
2023-05-05T05:07:43.007Z,50.27
2023-05-05T05:08:44.800Z,50.06
2023-05-05T05:09:46.703Z,49.54
2023-05-05T05:10:48.541Z,49.04
2023-05-05T05:11:50.340Z,48.74
2023-05-05T05:12:52.230Z,48.41
2023-05-05T05:13:54.052Z,48.33
2023-05-05T05:14:56.045Z,48.26
2023-05-05T05:15:57.779Z,48.22
2023-05-05T05:17:00.231Z,48.24
2023-05-05T05:18:02.263Z,48.33
2023-05-05T05:19:03.982Z,48.41
2023-05-05T05:20:06.215Z,48.45
2023-05-05T05:21:08.253Z,48.38
2023-05-05T05:22:10.098Z,48.38
2023-05-05T05:23:11.857Z,48.34
2023-05-05T05:24:13.720Z,48.42
2023-05-05T05:25:15.750Z,48.42
2023-05-05T05:26:17.750Z,48.39
2023-05-05T05:27:19.552Z,48.32
2023-05-05T05:28:21.381Z,47.75
2023-05-05T05:29:23.163Z,47.80
2023-05-05T05:30:25.114Z,47.67
2023-05-05T05:31:26.941Z,47.60
2023-05-05T05:32:28.792Z,47.42
2023-05-05T05:33:30.623Z,47.26
2023-05-05T05:34:32.419Z,47.15
2023-05-05T05:35:34.348Z,47.06
2023-05-05T05:36:36.164Z,46.58
2023-05-05T05:37:37.970Z,46.46
2023-05-05T05:38:39.853Z,46.10
2023-05-05T05:39:43.476Z,45.50
2023-05-05T05:40:45.408Z,45.13
2023-05-05T05:41:47.212Z,44.42
2023-05-05T05:42:49.066Z,43.91
2023-05-05T05:43:50.862Z,43.83
2023-05-05T05:44:52.658Z,43.23
2023-05-05T05:45:54.651Z,42.84
2023-05-05T05:46:56.487Z,42.75
2023-05-05T05:47:58.318Z,42.80
2023-05-05T05:49:00.176Z,42.88
2023-05-05T05:50:02.025Z,43.01
2023-05-05T05:51:03.854Z,42.97
2023-05-05T05:52:05.656Z,42.90
2023-05-05T05:53:07.463Z,43.02
2023-05-05T05:54:09.261Z,42.98
2023-05-05T05:55:11.057Z,42.60
2023-05-05T05:56:13.856Z,42.33
2023-05-05T05:57:15.739Z,42.24
2023-05-05T05:58:17.604Z,42.09
2023-05-05T05:59:19.403Z,41.95
2023-05-05T06:00:21.200Z,42.08
2023-05-05T06:01:22.997Z,41.99
2023-05-05T06:02:24.872Z,41.62
2023-05-05T06:03:26.942Z,41.43
2023-05-05T06:04:28.996Z,41.15
2023-05-05T06:05:30.994Z,40.70
2023-05-05T06:06:32.874Z,40.03
2023-05-05T06:07:34.650Z,40.33
2023-05-05T06:08:36.451Z,40.09
2023-05-05T06:09:38.257Z,40.32
2023-05-05T06:10:40.104Z,40.25
2023-05-05T06:11:42.098Z,40.25
2023-05-05T06:12:43.935Z,40.06
2023-05-05T06:13:45.787Z,40.14
2023-05-05T06:14:47.569Z,40.06
2023-05-05T06:15:49.510Z,39.88
2023-05-05T06:16:52.049Z,39.92
2023-05-05T06:17:53.787Z,40.11
2023-05-05T06:18:55.749Z,40.33
2023-05-05T06:19:57.548Z,40.51
2023-05-05T06:20:59.344Z,40.54
2023-05-05T06:22:01.162Z,40.66
2023-05-05T06:23:03.096Z,40.72
2023-05-05T06:24:04.880Z,40.87
2023-05-05T06:25:06.680Z,40.88
2023-05-05T06:26:08.766Z,40.88
2023-05-05T06:27:10.610Z,40.96
2023-05-05T06:28:12.395Z,40.95
2023-05-05T06:29:14.219Z,40.89
2023-05-05T06:30:16.125Z,40.82
2023-05-05T06:31:17.949Z,40.70
2023-05-05T06:32:21.578Z,40.99
2023-05-05T06:33:23.417Z,41.18
2023-05-05T06:34:25.178Z,41.30
2023-05-05T06:35:26.976Z,41.39
2023-05-05T06:36:28.819Z,41.40
2023-05-05T06:37:30.612Z,41.12
2023-05-05T06:38:32.440Z,40.76
2023-05-05T06:39:34.243Z,40.71
2023-05-05T06:40:36.053Z,40.81
2023-05-05T06:41:37.839Z,41.07
2023-05-05T06:42:43.406Z,41.05
2023-05-05T06:43:45.249Z,41.14
2023-05-05T06:44:47.038Z,40.97
2023-05-05T06:45:48.856Z,41.01
2023-05-05T06:46:50.796Z,40.89
2023-05-05T06:47:52.671Z,40.42
2023-05-05T06:48:54.603Z,40.45
2023-05-05T06:49:56.511Z,40.61
2023-05-05T06:50:58.303Z,40.86
2023-05-05T06:52:00.148Z,41.43
2023-05-05T06:53:02.080Z,41.88
2023-05-05T06:54:03.891Z,41.56
2023-05-05T06:55:05.689Z,40.88
2023-05-05T06:56:07.688Z,40.99
2023-05-05T06:57:09.383Z,41.27
2023-05-05T06:58:11.210Z,41.29
2023-05-05T06:59:13.011Z,41.30
2023-05-05T07:00:15.100Z,41.30
2023-05-05T07:01:16.948Z,41.24
2023-05-05T07:02:18.706Z,41.54
2023-05-05T07:03:20.680Z,42.09
2023-05-05T07:04:22.556Z,42.51
2023-05-05T07:05:24.382Z,42.75
2023-05-05T07:06:26.500Z,42.72
2023-05-05T07:07:28.308Z,42.36
2023-05-05T07:08:30.160Z,42.31
2023-05-05T07:09:31.864Z,42.43
2023-05-05T07:10:33.691Z,42.45
2023-05-05T07:11:35.479Z,42.34
2023-05-05T07:12:37.343Z,42.48
2023-05-05T07:13:39.221Z,42.69
2023-05-05T07:14:41.017Z,42.68
2023-05-05T07:15:42.822Z,42.58
2023-05-05T07:16:44.633Z,42.49
2023-05-05T07:17:46.553Z,42.58
2023-05-05T07:18:48.450Z,42.68
2023-05-05T07:19:50.259Z,42.54
2023-05-05T07:20:52.153Z,42.51
2023-05-05T07:21:53.946Z,42.51
2023-05-05T07:22:55.923Z,42.57
2023-05-05T07:23:57.667Z,42.75
2023-05-05T07:24:59.453Z,42.27
2023-05-05T07:26:01.257Z,41.59
2023-05-05T07:27:03.069Z,41.81
2023-05-05T07:28:04.890Z,42.42
2023-05-05T07:29:06.719Z,42.95
2023-05-05T07:30:12.425Z,43.26
2023-05-05T07:31:12.740Z,43.19
2023-05-05T07:32:14.644Z,42.93
2023-05-05T07:33:16.421Z,42.61
2023-05-05T07:34:18.293Z,42.45
2023-05-05T07:35:20.064Z,42.34
2023-05-05T07:36:21.852Z,42.40
2023-05-05T07:37:23.654Z,42.46
2023-05-05T07:38:25.442Z,42.55
2023-05-05T07:39:27.298Z,42.71
2023-05-05T07:40:29.188Z,42.65
2023-05-05T07:41:31.026Z,42.64
2023-05-05T07:42:32.817Z,42.49
2023-05-05T07:43:34.669Z,42.58
2023-05-05T07:44:36.500Z,42.71
2023-05-05T07:45:38.567Z,42.42
2023-05-05T07:46:40.747Z,42.09
2023-05-05T07:47:42.560Z,41.35
2023-05-05T07:48:44.427Z,41.13
2023-05-05T07:49:46.270Z,40.96
2023-05-05T07:50:48.083Z,40.44
2023-05-05T07:51:49.861Z,40.56
2023-05-05T07:52:56.337Z,40.44
2023-05-05T07:53:55.167Z,40.52
2023-05-05T07:54:57.014Z,40.68
2023-05-05T07:55:58.833Z,40.59
2023-05-05T07:57:00.624Z,40.17
2023-05-05T07:58:02.413Z,40.34
2023-05-05T07:59:04.208Z,40.49
2023-05-05T08:00:06.603Z,40.17
2023-05-05T08:01:08.784Z,40.43
2023-05-05T08:02:10.649Z,40.21
2023-05-05T08:03:12.599Z,40.04
2023-05-05T08:04:14.629Z,40.04
2023-05-05T08:05:16.573Z,40.41
2023-05-05T08:06:18.340Z,40.25
2023-05-05T08:07:20.065Z,40.02
2023-05-05T08:08:21.857Z,39.64
2023-05-05T08:09:23.662Z,39.35
2023-05-05T08:10:25.609Z,39.30
2023-05-05T08:11:29.548Z,39.37
2023-05-05T08:12:31.033Z,39.20
2023-05-05T08:13:32.822Z,38.88
2023-05-05T08:14:34.629Z,39.25
2023-05-05T08:15:36.463Z,38.63
2023-05-05T08:16:38.265Z,39.07
2023-05-05T08:17:40.165Z,39.29
2023-05-05T08:18:42.011Z,39.60
2023-05-05T08:19:43.823Z,39.58
2023-05-05T08:20:45.649Z,39.16
2023-05-05T08:21:47.449Z,38.54
2023-05-05T08:22:49.262Z,38.82
2023-05-05T08:23:51.059Z,39.17
2023-05-05T08:24:52.767Z,39.30
2023-05-05T08:25:54.611Z,39.18
2023-05-05T08:26:56.522Z,39.65
2023-05-05T08:27:58.525Z,39.15
2023-05-05T08:29:00.351Z,39.52
2023-05-05T08:30:02.137Z,38.95
2023-05-05T08:31:04.176Z,39.27
2023-05-05T08:32:06.366Z,38.73
2023-05-05T08:33:08.210Z,38.44
2023-05-05T08:34:10.051Z,38.12
2023-05-05T08:35:12.324Z,38.64
2023-05-05T08:36:14.622Z,38.69
2023-05-05T08:37:16.437Z,38.94
2023-05-05T08:38:18.238Z,38.48
2023-05-05T08:39:20.057Z,38.93
2023-05-05T08:40:21.848Z,39.23
2023-05-05T08:41:23.689Z,39.42
2023-05-05T08:42:36.289Z,39.35
2023-05-05T08:43:29.089Z,39.11
2023-05-05T08:44:30.890Z,38.86
2023-05-05T08:45:32.689Z,38.95
2023-05-05T08:46:34.560Z,38.72
2023-05-05T08:47:36.403Z,39.08
2023-05-05T08:48:38.262Z,39.39
2023-05-05T08:49:40.066Z,39.19
2023-05-05T08:50:41.871Z,39.12
2023-05-05T08:51:43.698Z,38.61
2023-05-05T08:52:45.708Z,39.01
2023-05-05T08:53:47.694Z,38.80
2023-05-05T08:54:50.723Z,38.78
2023-05-05T08:55:52.573Z,39.10
2023-05-05T08:56:54.395Z,39.08
2023-05-05T08:57:56.253Z,38.07
2023-05-05T08:58:58.444Z,38.04
2023-05-05T09:00:00.269Z,37.91
2023-05-05T09:01:02.113Z,37.95
2023-05-05T09:02:03.973Z,37.70
2023-05-05T09:03:05.968Z,37.63
2023-05-05T09:04:07.947Z,37.63
2023-05-05T09:05:10.045Z,38.10
2023-05-05T09:06:12.302Z,38.29
2023-05-05T09:07:14.136Z,37.17
2023-05-05T09:08:15.915Z,37.36
2023-05-05T09:09:17.719Z,37.30
2023-05-05T09:10:19.553Z,37.72
2023-05-05T09:11:21.339Z,38.09
2023-05-05T09:12:23.198Z,37.60
2023-05-05T09:13:24.977Z,37.54
2023-05-05T09:14:26.784Z,37.66
2023-05-05T09:15:28.619Z,38.27
2023-05-05T09:16:30.577Z,38.66
2023-05-05T09:17:32.426Z,38.58
2023-05-05T09:18:34.292Z,38.71
2023-05-05T09:19:36.106Z,38.45
2023-05-05T09:20:37.898Z,38.56
2023-05-05T09:21:39.861Z,37.71
2023-05-05T09:22:41.599Z,37.95
2023-05-05T09:23:43.399Z,38.35
2023-05-05T09:24:45.206Z,37.84
2023-05-05T09:25:47.035Z,38.28
2023-05-05T09:26:48.916Z,38.38
2023-05-05T09:27:50.763Z,38.68
2023-05-05T09:28:52.578Z,38.43
2023-05-05T09:29:54.382Z,38.69
2023-05-05T09:30:56.314Z,38.72
2023-05-05T09:31:58.177Z,38.51
2023-05-05T09:33:00.066Z,38.58
2023-05-05T09:34:01.859Z,37.51
2023-05-05T09:35:03.650Z,37.00
2023-05-05T09:36:05.549Z,37.25
2023-05-05T09:37:07.364Z,37.48
2023-05-05T09:38:09.201Z,37.19
2023-05-05T09:39:11.016Z,36.68
2023-05-05T09:40:13.524Z,36.12
2023-05-05T09:41:15.343Z,36.70
2023-05-05T09:42:17.148Z,37.34
2023-05-05T09:43:19.036Z,36.38
2023-05-05T09:44:20.849Z,36.22
2023-05-05T09:45:22.664Z,35.72
2023-05-05T09:46:24.480Z,35.68
2023-05-05T09:47:29.520Z,35.85
2023-05-05T09:48:29.939Z,35.65
2023-05-05T09:49:31.901Z,42.12
2023-05-05T09:50:33.795Z,45.33
2023-05-05T09:51:35.594Z,47.07
2023-05-05T09:52:37.395Z,49.95
2023-05-05T09:53:39.240Z,50.12
2023-05-05T09:54:41.079Z,52.64
2023-05-05T09:55:42.774Z,52.64
2023-05-05T09:56:44.573Z,52.89
2023-05-05T09:57:46.276Z,53.13
2023-05-05T09:58:48.195Z,53.29
2023-05-05T09:59:50.039Z,51.54
2023-05-05T10:00:51.829Z,51.54
2023-05-05T10:01:53.693Z,52.58
2023-05-05T10:02:55.723Z,53.00
2023-05-05T10:03:57.596Z,53.19
2023-05-05T10:05:01.542Z,51.74
2023-05-05T10:06:02.996Z,52.51
2023-05-05T10:07:04.833Z,52.82
2023-05-05T10:08:06.621Z,52.89
2023-05-05T10:09:08.475Z,52.87
2023-05-05T10:10:10.595Z,52.88
2023-05-05T10:11:12.598Z,52.87
2023-05-05T10:12:14.373Z,52.85
2023-05-05T10:13:16.256Z,52.75
2023-05-05T10:14:18.145Z,52.17
2023-05-05T10:15:19.974Z,51.99
2023-05-05T10:16:21.819Z,52.25
2023-05-05T10:17:23.768Z,50.29
2023-05-05T10:18:25.765Z,51.10
2023-05-05T10:19:27.643Z,51.38
2023-05-05T10:20:29.544Z,51.90
2023-05-05T10:21:31.346Z,52.10
2023-05-05T10:22:33.153Z,52.18
2023-05-05T10:23:34.999Z,52.18
2023-05-05T10:24:36.992Z,52.16
2023-05-05T10:25:38.796Z,51.74
2023-05-05T10:26:42.423Z,51.55
2023-05-05T10:27:44.233Z,51.75
2023-05-05T10:28:46.072Z,51.86
2023-05-05T10:29:47.890Z,51.83
2023-05-05T10:30:49.690Z,51.68
2023-05-05T10:31:51.530Z,51.36
2023-05-05T10:33:07.991Z,51.43
2023-05-05T10:33:57.265Z,51.48
2023-05-05T10:34:59.160Z,51.51
2023-05-05T10:36:00.958Z,51.51
2023-05-05T10:37:02.752Z,51.53
2023-05-05T10:38:04.556Z,51.54
2023-05-05T10:39:06.372Z,51.23
2023-05-05T10:40:09.049Z,51.29
2023-05-05T10:41:11.006Z,51.37
2023-05-05T10:42:12.792Z,51.36
2023-05-05T10:43:14.588Z,51.31
2023-05-05T10:44:16.396Z,51.22
2023-05-05T10:45:18.157Z,51.18
2023-05-05T10:46:20.039Z,51.15
2023-05-05T10:47:21.935Z,51.13
2023-05-05T10:48:23.839Z,50.64
2023-05-05T10:49:25.641Z,50.83
2023-05-05T10:50:27.466Z,50.39
2023-05-05T10:51:39.431Z,50.27
2023-05-05T10:52:32.775Z,50.71
2023-05-05T10:53:34.553Z,50.92
2023-05-05T10:54:37.800Z,50.96
2023-05-05T10:55:39.991Z,50.91
2023-05-05T10:56:41.816Z,50.94
2023-05-05T10:57:43.609Z,50.97
2023-05-05T10:58:59.007Z,50.93
2023-05-05T10:59:49.010Z,50.96
2023-05-05T11:00:50.870Z,50.96
2023-05-05T11:01:52.648Z,50.96
2023-05-05T11:02:54.495Z,50.92
2023-05-05T11:03:56.379Z,50.89
2023-05-05T11:04:58.245Z,50.90
2023-05-05T11:06:00.067Z,50.32
2023-05-05T11:07:01.876Z,50.41
2023-05-05T11:08:03.575Z,50.61
2023-05-05T11:09:05.369Z,50.67
2023-05-05T11:10:07.804Z,47.14
2023-05-05T11:11:10.139Z,49.01
2023-05-05T11:12:11.990Z,49.83
2023-05-05T11:13:13.874Z,50.13
2023-05-05T11:24:58.754Z,46.82
2023-05-05T11:26:00.565Z,48.97
2023-05-05T11:27:02.359Z,49.54
2023-05-05T11:28:04.155Z,48.91
2023-05-05T11:29:06.071Z,47.53
2023-05-05T11:30:08.449Z,48.83
2023-05-05T11:31:10.581Z,49.36
2023-05-05T11:32:12.394Z,49.57
2023-05-05T11:33:14.153Z,49.69
2023-05-05T11:34:15.979Z,49.77
2023-05-05T11:35:17.803Z,49.77
2023-05-05T11:36:19.600Z,49.77
2023-05-05T11:37:21.392Z,49.78
2023-05-05T11:38:23.200Z,49.78
2023-05-05T11:39:25.003Z,49.75
2023-05-05T11:40:26.898Z,49.70
2023-05-05T11:41:28.689Z,49.43
2023-05-05T11:42:30.569Z,49.56
2023-05-05T11:43:32.383Z,49.58
2023-05-05T11:44:34.229Z,49.59
2023-05-05T11:45:36.054Z,48.80
2023-05-05T11:46:37.925Z,49.27
2023-05-05T11:47:39.759Z,49.42
2023-05-05T11:48:41.953Z,49.49
2023-05-05T11:49:43.798Z,46.72
2023-05-05T11:50:45.588Z,46.50
2023-05-05T11:51:47.398Z,47.17
2023-05-05T11:52:49.203Z,48.38
2023-05-05T11:53:51.024Z,48.95
2023-05-05T11:54:52.831Z,48.58
2023-05-05T11:55:54.615Z,49.04
2023-05-05T11:56:56.430Z,49.28
2023-05-05T11:57:58.216Z,49.37
2023-05-05T11:59:00.014Z,48.22
2023-05-05T12:00:01.979Z,48.49
2023-05-05T12:01:03.750Z,49.08
2023-05-05T12:02:05.548Z,49.34
2023-05-05T12:03:07.466Z,49.44
2023-05-05T12:04:09.662Z,49.50
2023-05-05T12:05:11.647Z,49.51
2023-05-05T12:06:14.558Z,49.49
2023-05-05T12:07:16.346Z,49.52
2023-05-05T12:08:18.158Z,49.53
2023-05-05T12:09:19.871Z,49.51
2023-05-05T12:10:22.121Z,49.49
2023-05-05T12:11:23.901Z,49.47
2023-05-05T12:12:25.703Z,49.47
2023-05-05T12:13:27.559Z,49.47
2023-05-05T12:14:29.393Z,49.47
2023-05-05T12:15:31.654Z,49.49
2023-05-05T12:16:33.648Z,49.52
2023-05-05T12:17:35.431Z,49.54
2023-05-05T12:18:37.214Z,49.54
2023-05-05T12:19:39.025Z,49.52
2023-05-05T12:20:40.862Z,49.48
2023-05-05T12:21:42.661Z,49.51
2023-05-05T12:22:44.462Z,49.50
2023-05-05T12:23:46.292Z,49.51
2023-05-05T12:24:48.099Z,49.52
2023-05-05T12:25:49.941Z,49.51
2023-05-05T12:26:51.724Z,49.48
2023-05-05T12:27:53.511Z,49.45
2023-05-05T12:28:55.568Z,49.43
2023-05-05T12:29:57.461Z,49.25
2023-05-05T12:30:59.689Z,49.32
2023-05-05T12:32:01.555Z,49.37
2023-05-05T12:33:03.520Z,49.41
2023-05-05T12:34:05.293Z,49.42
2023-05-05T12:35:07.119Z,49.42
2023-05-05T12:36:09.140Z,49.42
2023-05-05T12:37:10.936Z,49.41
2023-05-05T12:38:12.837Z,49.41
2023-05-05T12:39:14.625Z,49.41
2023-05-05T12:40:16.718Z,49.37
2023-05-05T12:41:18.473Z,49.26
2023-05-05T12:42:20.395Z,49.25
2023-05-05T12:43:22.813Z,49.25
2023-05-05T12:44:24.607Z,49.29
2023-05-05T12:45:26.402Z,49.30
2023-05-05T12:46:28.782Z,49.34
2023-05-05T12:47:30.677Z,47.88
2023-05-05T12:48:32.434Z,48.71
2023-05-05T12:49:34.238Z,49.03
2023-05-05T12:50:36.028Z,49.10
2023-05-05T12:51:37.908Z,49.15
2023-05-05T12:52:39.734Z,49.19
2023-05-05T12:53:41.544Z,49.12
2023-05-05T12:54:43.329Z,49.13
2023-05-05T12:55:45.128Z,49.19
2023-05-05T12:56:46.949Z,49.25
2023-05-05T12:57:48.761Z,49.28
2023-05-05T12:58:50.573Z,49.31
2023-05-05T12:59:52.363Z,49.28
2023-05-05T13:00:55.176Z,49.32
2023-05-05T13:01:57.203Z,49.32
2023-05-05T13:02:59.252Z,49.29
2023-05-05T13:04:01.049Z,49.34
2023-05-05T13:05:02.832Z,49.34
2023-05-05T13:06:04.843Z,49.38
2023-05-05T13:07:06.638Z,49.34
2023-05-05T13:08:08.422Z,49.30
2023-05-05T13:09:10.293Z,49.33
2023-05-05T13:10:12.621Z,49.39
2023-05-05T13:11:14.439Z,49.35
2023-05-05T13:12:16.252Z,49.37
2023-05-05T13:13:17.986Z,49.40
2023-05-05T13:14:19.837Z,49.40
2023-05-05T13:15:21.528Z,49.40
2023-05-05T13:16:23.520Z,49.41
2023-05-05T13:17:25.486Z,49.42
2023-05-05T13:18:27.268Z,49.42
2023-05-05T13:19:29.054Z,49.37
2023-05-05T13:20:31.253Z,49.37
2023-05-05T13:21:33.058Z,49.39
2023-05-05T13:22:34.873Z,49.41
2023-05-05T13:23:36.707Z,49.36
2023-05-05T13:24:51.042Z,48.89
2023-05-05T13:25:42.111Z,49.01
2023-05-05T13:26:43.907Z,48.92
2023-05-05T13:27:45.731Z,49.27